METAR Formatted Surface Weather Observation
Issued by NWS

Home | Current Version | Previous Version | Text Only | Print | Product List | Glossary On
Versions: 1 2 3 4 5 6 7 8 9 10 11 12 13 14 15 16 17 18 19
598
SAUS43 KMQT 310457 COR
MTRP59
METAR KP59 310451Z AUTO 36003KT 17/16 A3009 RMK AO1 SLP185 T01720156
402330172



USA.gov is the U.S. government's official web portal to all federal, state and local government web resources and services.